Time;durP1;ratioP1;P1;durP2;ratioP2;P2;SDS_P1;SDS_P2;PMS_P1;PMS_P2;Temp;Humidity;BMP_temperature;BMP_pressure;BME280_temperature;BME280_humidity;BME280_pressure;Samples;Min_cycle;Max_cycle;Signal;HPM_P1;HPM_P2
2023/10/24 00:05:09;;;;;;;5.38;4.28;;;;;;;22.18;58.36;100025.69;39978833;29;20470;-76
2023/10/24 00:25:10;;;;;;;5.10;4.38;;;;;;;22.22;58.22;100010.44;39966912;29;20050;-79
2023/10/24 00:45:10;;;;;;;4.60;4.03;;;;;;;22.08;58.26;99929.91;39974708;29;20155;-78
2023/10/24 01:05:12;;;;;;;6.72;4.57;;;;;;;22.06;58.48;99956.41;39969009;29;20121;-76
2023/10/24 01:25:14;;;;;;;5.95;4.32;;;;;;;22.15;58.11;100006.66;39968614;29;20130;-76
2023/10/24 01:45:17;;;;;;;5.47;4.20;;;;;;;21.94;59.29;99951.41;39974732;29;20062;-77
2023/10/24 02:05:17;;;;;;;4.93;4.25;;;;;;;21.93;59.06;99942.63;39940376;29;20045;-77
2023/10/24 02:25:18;;;;;;;5.57;4.50;;;;;;;22.01;58.77;99947.25;39980399;29;20046;-78
2023/10/24 02:45:18;;;;;;;4.93;4.40;;;;;;;22.04;58.21;99960.97;39978572;29;20037;-76
2023/10/24 03:05:19;;;;;;;5.88;4.80;;;;;;;21.96;58.49;99923.06;39964105;29;20045;-77
2023/10/24 03:25:20;;;;;;;6.82;4.03;;;;;;;21.94;59.26;99862.59;39990199;29;20049;-75
2023/10/24 03:45:21;;;;;;;6.63;4.47;;;;;;;21.71;58.40;99875.16;39981696;29;20156;-77
2023/10/24 04:05:22;;;;;;;4.50;4.00;;;;;;;21.90;58.25;99893.66;39988015;29;20124;-81
2023/10/24 04:25:23;;;;;;;5.82;3.72;;;;;;;22.00;58.17;99875.22;39984218;29;20066;-73
2023/10/24 04:45:23;;;;;;;13.43;6.75;;;;;;;22.01;59.08;99918.25;39970125;29;20064;-74
2023/10/24 05:05:23;;;;;;;20.67;6.88;;;;;;;22.03;59.29;99890.78;39966484;29;20054;-77
2023/10/24 05:25:24;;;;;;;20.58;7.18;;;;;;;21.88;58.49;99887.69;39958142;29;20050;-75
2023/10/24 05:45:24;;;;;;;16.00;6.63;;;;;;;21.87;58.89;99887.81;39959470;29;20050;-74
2023/10/24 06:05:25;;;;;;;14.07;6.50;;;;;;;21.87;58.82;99883.41;39973523;29;20069;-74
2023/10/24 06:25:25;;;;;;;11.73;6.22;;;;;;;21.83;59.18;99899.63;39980279;29;20046;-75
2023/10/24 06:45:25;;;;;;;12.25;5.35;;;;;;;21.84;59.14;99907.38;39968838;29;20525;-73
2023/10/24 07:05:27;;;;;;;10.20;5.65;;;;;;;21.77;59.15;99865.91;39955126;29;20374;-74
2023/10/24 07:25:28;;;;;;;11.27;5.60;;;;;;;21.79;58.95;99887.66;39962053;29;20115;-73
2023/10/24 07:45:28;;;;;;;9.85;5.63;;;;;;;21.66;59.38;99849.22;39954213;29;20118;-75
2023/10/24 08:05:28;;;;;;;9.98;5.40;;;;;;;;;;39991308;29;20054;-76
2023/10/24 08:25:29;;;;;;;6.15;4.53;;;;;;;21.85;59.04;99850.22;40015561;29;20139;-74
2023/10/24 08:45:31;;;;;;;11.13;5.50;;;;;;;21.95;58.50;99851.09;40009037;29;20058;-78
2023/10/24 09:05:32;;;;;;;12.77;5.05;;;;;;;21.92;58.96;99832.88;39993428;29;20123;-78
2023/10/24 09:25:33;;;;;;;8.45;4.82;;;;;;;21.84;58.99;99777.41;40002225;29;20129;-75
2023/10/24 09:45:35;;;;;;;7.03;4.60;;;;;;;21.97;58.89;99798.22;39977618;29;20046;-78
2023/10/24 10:05:36;;;;;;;7.07;4.68;;;;;;;22.08;58.92;99753.25;40041467;29;21992;-76
2023/10/24 10:25:39;;;;;;;6.25;4.72;;;;;;;22.17;58.65;99715.50;40178544;29;20037;-76
2023/10/24 10:45:40;;;;;;;7.80;4.18;;;;;;;22.13;58.53;99690.41;40155562;29;20061;-77
2023/10/24 11:05:43;;;;;;;6.57;4.38;;;;;;;22.20;59.08;99694.13;40139722;29;20057;-74
2023/10/24 11:25:47;;;;;;;5.43;4.10;;;;;;;22.16;59.19;99670.81;40159823;29;20414;-74
2023/10/24 11:46:03;;;;;;;11.02;5.00;;;;;;;22.22;59.38;99694.81;40122294;29;20057;-75
2023/10/24 12:06:07;;;;;;;7.72;4.72;;;;;;;22.02;58.46;99675.56;40155666;29;20042;-75
2023/10/24 12:26:07;;;;;;;6.35;4.30;;;;;;;22.11;57.99;99651.97;40160024;29;20078;-72
2023/10/24 12:46:08;;;;;;;6.10;4.10;;;;;;;22.04;57.12;99663.06;40155193;29;20118;-71
2023/10/24 13:06:08;;;;;;;8.30;4.18;;;;;;;21.88;58.53;99631.19;40126829;29;20049;-73
2023/10/24 13:26:09;;;;;;;5.60;4.13;;;;;;;22.20;57.88;99653.72;40163866;29;20423;-78
2023/10/24 13:46:09;;;;;;;6.65;4.15;;;;;;;22.12;58.55;99630.72;40172372;29;20484;-79
2023/10/24 14:06:10;;;;;;;5.20;3.55;;;;;;;21.91;58.51;99565.84;40162480;29;20125;-81
2023/10/24 14:26:10;;;;;;;6.97;3.83;;;;;;;22.06;58.54;99528.47;40140272;29;20073;-71
2023/10/24 14:46:12;;;;;;;7.00;3.53;;;;;;;22.24;58.88;99465.25;40123094;29;20523;-77
2023/10/24 15:06:12;;;;;;;9.77;4.03;;;;;;;22.15;59.13;99400.22;40125685;29;20053;-75
2023/10/24 15:26:12;;;;;;;5.50;4.03;;;;;;;22.11;59.23;99464.78;40126915;29;20073;-72
2023/10/24 15:46:19;;;;;;;7.07;4.18;;;;;;;22.13;60.47;99423.25;40114697;29;20420;-70
2023/10/24 16:06:20;;;;;;;14.55;4.13;;;;;;;22.22;59.50;99381.00;40111934;29;20526;-73
2023/10/24 16:26:20;;;;;;;9.70;4.13;;;;;;;22.33;59.90;99398.41;40108127;29;20091;-70
2023/10/24 16:46:21;;;;;;;5.55;3.75;;;;;;;22.21;59.86;99323.16;40123396;29;20053;-71
2023/10/24 17:06:22;;;;;;;6.50;4.03;;;;;;;22.14;60.18;99312.41;40110196;29;20053;-73
2023/10/24 17:26:23;;;;;;;4.78;4.10;;;;;;;22.20;60.23;99300.41;40103009;29;20050;-75
2023/10/24 17:46:24;;;;;;;6.65;4.75;;;;;;;22.22;60.69;99274.72;40107265;29;20045;-74
2023/10/24 18:06:25;;;;;;;20.67;8.13;;;;;;;22.57;62.93;99275.66;40132705;29;20152;-73
2023/10/24 18:26:27;;;;;;;24.02;9.00;;;;;;;22.69;62.66;99226.06;40132069;29;20057;-73
2023/10/24 18:46:29;;;;;;;20.23;9.07;;;;;;;22.53;62.44;99189.88;40162747;29;20504;-73
2023/10/24 19:06:30;;;;;;;18.05;7.93;;;;;;;22.31;62.81;99175.38;40112682;29;20060;-72
2023/10/24 19:26:31;;;;;;;16.05;7.82;;;;;;;22.22;62.65;99116.50;40085594;29;20050;-70
2023/10/24 19:46:40;;;;;;;14.07;7.00;;;;;;;22.27;62.37;99058.84;40098897;29;20056;-71
2023/10/24 20:06:44;;;;;;;12.95;6.28;;;;;;;22.24;61.96;99048.63;40117523;29;20062;-70
2023/10/24 20:26:47;;;;;;;12.02;6.82;;;;;;;21.72;61.79;98944.13;40109446;29;20105;-70
2023/10/24 20:46:48;;;;;;;10.15;6.38;;;;;;;22.18;61.56;99025.50;40104757;29;20042;-70
2023/10/24 21:06:48;;;;;;;10.98;6.25;;;;;;;22.19;61.76;98995.53;40115121;29;20058;-69
2023/10/24 21:26:50;;;;;;;8.20;5.60;;;;;;;22.19;61.90;98975.28;40116496;29;20064;-71
2023/10/24 21:46:50;;;;;;;8.82;5.68;;;;;;;22.17;61.90;98997.53;40110090;29;20515;-71
2023/10/24 22:06:51;;;;;;;12.38;6.25;;;;;;;22.14;60.78;98969.66;40125282;29;20046;-73
2023/10/24 22:26:51;;;;;;;10.27;6.38;;;;;;;22.06;61.17;98945.91;40125019;29;20046;-72
2023/10/24 22:46:52;;;;;;;8.40;5.80;;;;;;;22.11;61.93;98933.06;40124374;29;20050;-71
2023/10/24 23:06:52;;;;;;;7.88;6.22;;;;;;;21.92;61.70;98873.53;40132569;29;20054;-72
2023/10/24 23:26:55;;;;;;;9.32;5.78;;;;;;;22.12;62.33;98881.16;40140000;29;20073;-72
2023/10/24 23:46:55;;;;;;;7.65;5.93;;;;;;;22.06;62.45;98865.00;40153980;29;20101;-73
